createdAt,value
2022-08-21T00:01:19.405Z,2.10
2022-08-21T00:03:49.749Z,1.70
2022-08-21T00:06:20.443Z,1.38
2022-08-21T00:08:52.086Z,1.95
2022-08-21T00:11:20.552Z,1.55
2022-08-21T00:13:48.892Z,2.30
2022-08-21T00:19:10.183Z,1.80
2022-08-21T00:21:38.313Z,2.00
2022-08-21T00:24:07.642Z,1.70
2022-08-21T00:26:36.896Z,2.08
2022-08-21T00:29:06.176Z,1.70
2022-08-21T00:31:34.162Z,2.08
2022-08-21T00:34:02.470Z,2.17
2022-08-21T00:36:32.299Z,2.03
2022-08-21T00:39:00.318Z,1.75
2022-08-21T00:41:37.274Z,1.90
2022-08-21T00:44:08.206Z,1.52
2022-08-21T00:46:36.993Z,1.90
2022-08-21T00:49:05.310Z,1.75
2022-08-21T00:51:41.513Z,2.00
2022-08-21T00:54:18.370Z,1.50
2022-08-21T00:56:50.969Z,1.92
2022-08-21T00:59:21.076Z,1.83
2022-08-21T01:01:49.801Z,1.60
2022-08-21T01:04:18.328Z,2.45
2022-08-21T01:06:47.794Z,1.75
2022-08-21T01:09:16.561Z,1.90
2022-08-21T01:11:47.818Z,2.20
2022-08-21T01:14:16.728Z,1.77
2022-08-21T01:16:49.830Z,1.77
2022-08-21T01:19:20.379Z,1.75
2022-08-21T01:21:50.812Z,1.80
2022-08-21T01:24:19.180Z,1.73
2022-08-21T01:26:47.516Z,2.10
2022-08-21T01:29:25.171Z,2.03
2022-08-21T01:31:53.190Z,1.55
2022-08-21T01:34:21.197Z,1.88
2022-08-21T01:36:51.364Z,1.52
2022-08-21T01:39:19.697Z,1.70
2022-08-21T01:41:47.714Z,1.70
2022-08-21T01:44:17.630Z,1.73
2022-08-21T01:46:45.630Z,2.03
2022-08-21T01:49:13.627Z,2.03
2022-08-21T01:51:42.076Z,2.30
2022-08-21T01:54:11.714Z,1.85
2022-08-21T01:56:41.098Z,1.77
2022-08-21T01:59:09.752Z,1.67
2022-08-21T02:01:40.318Z,1.92
2022-08-21T02:04:10.039Z,1.98
2022-08-21T02:06:41.660Z,1.80
2022-08-21T02:09:12.983Z,2.20
2022-08-21T02:11:41.535Z,2.05
2022-08-21T02:14:09.743Z,1.17
2022-08-21T02:16:38.489Z,1.40
2022-08-21T02:19:07.359Z,1.77
2022-08-21T02:21:35.469Z,2.13
2022-08-21T02:24:03.983Z,1.83
2022-08-21T02:26:35.132Z,1.65
2022-08-21T02:29:04.250Z,1.65
2022-08-21T02:31:32.273Z,1.35
2022-08-21T02:34:00.590Z,1.70
2022-08-21T02:36:29.349Z,2.20
2022-08-21T02:38:57.734Z,1.58
2022-08-21T02:41:26.236Z,1.80
2022-08-21T02:43:56.382Z,1.55
2022-08-21T02:46:24.585Z,1.77
2022-08-21T02:48:52.654Z,1.90
2022-08-21T02:51:23.782Z,1.90
2022-08-21T02:53:52.473Z,1.88
2022-08-21T02:56:23.459Z,1.98
2022-08-21T02:58:54.147Z,1.80
2022-08-21T03:01:24.668Z,1.70
2022-08-21T03:03:52.704Z,2.50
2022-08-21T03:06:23.672Z,2.10
2022-08-21T03:08:51.976Z,2.78
2022-08-21T03:11:20.099Z,2.45
2022-08-21T03:13:50.692Z,2.20
2022-08-21T03:16:23.574Z,2.00
2022-08-21T03:18:51.674Z,1.92
2022-08-21T03:21:22.501Z,2.10
2022-08-21T03:23:55.288Z,2.03
2022-08-21T03:26:23.296Z,2.15
2022-08-21T03:28:52.031Z,2.40
2022-08-21T03:31:22.738Z,2.00
2022-08-21T03:33:56.040Z,2.00
2022-08-21T03:36:24.489Z,2.53
2022-08-21T03:38:52.610Z,2.30
2022-08-21T03:41:20.705Z,2.92
2022-08-21T03:43:49.053Z,2.22
2022-08-21T03:46:17.092Z,2.08
2022-08-21T03:48:45.319Z,2.13
2022-08-21T03:51:14.724Z,2.75
2022-08-21T03:53:42.732Z,2.20
2022-08-21T03:56:10.733Z,2.25
2022-08-21T03:58:39.438Z,2.38
2022-08-21T04:01:08.197Z,2.38
2022-08-21T04:03:38.049Z,2.22
2022-08-21T04:06:06.949Z,2.30
2022-08-21T04:08:36.782Z,2.30
2022-08-21T04:11:05.288Z,3.42
2022-08-21T04:13:33.881Z,2.60
2022-08-21T04:16:01.908Z,2.22
2022-08-21T04:18:29.929Z,2.50
2022-08-21T04:21:03.528Z,2.72
2022-08-21T04:23:32.873Z,2.60
2022-08-21T04:26:02.201Z,2.72
2022-08-21T04:28:33.237Z,2.45
2022-08-21T04:31:04.300Z,3.10
2022-08-21T04:33:32.294Z,2.35
2022-08-21T04:36:02.729Z,2.75
2022-08-21T04:38:33.153Z,2.45
2022-08-21T04:41:07.654Z,2.60
2022-08-21T04:43:35.852Z,2.60
2022-08-21T04:46:04.016Z,2.20
2022-08-21T04:48:35.028Z,3.40
2022-08-21T04:51:07.666Z,2.97
2022-08-21T04:53:39.293Z,2.92
2022-08-21T04:56:12.191Z,2.10
2022-08-21T04:58:42.846Z,2.17
2022-08-21T05:01:17.566Z,2.42
2022-08-21T05:03:46.690Z,2.75
2022-08-21T05:06:16.554Z,2.75
2022-08-21T05:08:47.434Z,2.95
2022-08-21T05:11:16.933Z,2.58
2022-08-21T05:13:44.935Z,2.47
2022-08-21T05:16:13.059Z,2.85
2022-08-21T05:18:41.046Z,2.80
2022-08-21T05:21:12.162Z,3.53
2022-08-21T05:23:40.603Z,3.13
2022-08-21T05:26:08.584Z,3.15
2022-08-21T05:28:47.760Z,3.42
2022-08-21T05:31:15.820Z,4.05
2022-08-21T05:33:43.986Z,4.05
2022-08-21T05:36:12.324Z,4.13
2022-08-21T05:38:44.376Z,3.75
2022-08-21T05:41:15.485Z,2.97
2022-08-21T05:43:43.517Z,4.25
2022-08-21T05:46:12.849Z,4.50
2022-08-21T05:48:42.796Z,3.22
2022-08-21T05:51:14.045Z,4.00
2022-08-21T05:53:44.196Z,4.57
2022-08-21T05:56:13.771Z,4.40
2022-08-21T05:58:41.821Z,4.18
2022-08-21T06:01:10.183Z,4.38
2022-08-21T06:03:41.485Z,4.00
2022-08-21T06:06:10.308Z,4.65
2022-08-21T06:08:38.921Z,4.68
2022-08-21T06:11:08.676Z,5.53
2022-08-21T06:13:37.933Z,4.53
2022-08-21T06:16:09.399Z,5.57
2022-08-21T06:18:41.227Z,4.82
2022-08-21T06:21:10.632Z,4.72
2022-08-21T06:23:38.922Z,5.13
2022-08-21T06:26:09.200Z,5.65
2022-08-21T06:28:38.736Z,4.72
2022-08-21T06:31:14.207Z,5.05
2022-08-21T06:33:43.617Z,5.47
2022-08-21T06:36:11.739Z,4.95
2022-08-21T06:38:39.987Z,4.93
2022-08-21T06:41:10.130Z,5.68
2022-08-21T06:43:39.895Z,4.75
2022-08-21T06:46:09.221Z,5.28
2022-08-21T06:48:37.299Z,4.53
2022-08-21T06:51:06.863Z,4.30
2022-08-21T06:53:35.287Z,4.80
2022-08-21T06:56:03.538Z,5.45
2022-08-21T06:58:31.870Z,4.85
2022-08-21T07:01:01.204Z,5.20
2022-08-21T07:03:32.758Z,4.80
2022-08-21T07:06:01.044Z,4.57
2022-08-21T07:08:30.813Z,4.35
2022-08-21T07:11:01.529Z,3.72
2022-08-21T07:13:30.375Z,4.07
2022-08-21T07:16:03.644Z,4.50
2022-08-21T07:18:33.168Z,4.03
2022-08-21T07:21:04.442Z,3.80
2022-08-21T07:23:40.318Z,4.53
2022-08-21T07:26:08.766Z,3.85
2022-08-21T07:28:36.936Z,3.45
2022-08-21T07:31:05.901Z,3.72
2022-08-21T07:33:36.468Z,3.40
2022-08-21T07:36:05.600Z,3.80
2022-08-21T07:38:35.094Z,3.45
2022-08-21T07:41:04.292Z,3.35
2022-08-21T07:43:32.392Z,3.63
2022-08-21T07:46:01.058Z,2.75
2022-08-21T07:48:29.081Z,2.67
2022-08-21T07:50:57.366Z,2.88
2022-08-21T07:53:25.983Z,3.20
2022-08-21T07:55:55.307Z,2.80
2022-08-21T07:58:23.312Z,3.30
2022-08-21T08:00:51.325Z,2.80
2022-08-21T08:03:20.961Z,2.90
2022-08-21T08:05:58.979Z,2.55
2022-08-21T08:08:27.305Z,2.80
2022-08-21T08:10:59.132Z,2.78
2022-08-21T08:13:27.417Z,2.55
2022-08-21T08:15:55.579Z,2.90
2022-08-21T08:18:23.618Z,2.92
2022-08-21T08:20:51.590Z,3.25
2022-08-21T08:23:19.628Z,2.92
2022-08-21T08:25:47.688Z,2.78
2022-08-21T08:28:17.918Z,2.50
2022-08-21T08:30:47.021Z,2.78
2022-08-21T08:33:15.795Z,2.58
2022-08-21T08:35:44.798Z,2.10
2022-08-21T08:38:12.804Z,2.65
2022-08-21T08:40:49.598Z,2.60
2022-08-21T08:43:19.379Z,2.40
2022-08-21T08:45:51.358Z,2.92
2022-08-21T08:48:36.727Z,3.25
2022-08-21T08:51:11.695Z,3.63
2022-08-21T08:53:48.837Z,3.60
2022-08-21T08:56:17.061Z,3.15
2022-08-21T08:58:48.536Z,4.00
2022-08-21T09:01:19.748Z,4.13
2022-08-21T09:03:54.438Z,3.85
2022-08-21T09:06:46.744Z,3.58
2022-08-21T09:09:31.723Z,3.78
2022-08-21T09:12:05.344Z,3.45
2022-08-21T09:14:56.893Z,3.40
2022-08-21T09:17:37.429Z,3.40
2022-08-21T09:20:38.568Z,3.70
2022-08-21T09:23:21.752Z,3.22
2022-08-21T09:26:00.846Z,3.08
2022-08-21T09:28:33.100Z,3.55
2022-08-21T09:31:05.736Z,3.00
2022-08-21T09:33:39.919Z,3.10
2022-08-21T09:36:09.539Z,3.20
2022-08-21T09:38:39.964Z,3.30
2022-08-21T09:41:10.850Z,3.00
2022-08-21T09:43:39.714Z,3.10
2022-08-21T09:46:12.089Z,3.08
2022-08-21T09:48:47.280Z,2.67
2022-08-21T09:51:18.477Z,2.40
2022-08-21T09:53:50.227Z,3.03
2022-08-21T09:56:46.327Z,2.60
2022-08-21T09:59:18.125Z,2.80
2022-08-21T10:01:50.343Z,2.78
2022-08-21T10:04:24.362Z,2.13
2022-08-21T10:06:52.721Z,3.00
2022-08-21T10:09:24.905Z,2.30
2022-08-21T10:12:11.294Z,2.30
2022-08-21T10:14:53.037Z,2.67
2022-08-21T10:17:32.298Z,2.45
2022-08-21T10:20:07.715Z,2.17
2022-08-21T10:22:44.541Z,2.60
2022-08-21T10:25:21.709Z,2.38
2022-08-21T10:28:00.323Z,2.10
2022-08-21T10:30:43.627Z,2.10
2022-08-21T10:33:28.959Z,2.72
2022-08-21T10:36:07.398Z,2.40
2022-08-21T10:39:25.976Z,2.40
2022-08-21T10:42:30.131Z,2.25
2022-08-21T10:45:10.971Z,2.13
2022-08-21T10:47:43.637Z,2.00
2022-08-21T10:50:21.116Z,2.45
2022-08-21T10:53:33.133Z,2.08
2022-08-21T10:56:12.210Z,1.80
2022-08-21T10:58:46.402Z,1.98
2022-08-21T11:01:19.280Z,2.05
2022-08-21T11:03:52.722Z,2.35
2022-08-21T11:06:26.083Z,2.33
2022-08-21T11:08:58.320Z,2.30
2022-08-21T11:11:35.888Z,2.10
2022-08-21T11:14:11.566Z,2.33
2022-08-21T11:16:43.449Z,1.98
2022-08-21T11:19:20.101Z,1.83
2022-08-21T11:21:54.524Z,2.33
2022-08-21T11:24:31.998Z,2.30
2022-08-21T11:27:06.719Z,1.80
2022-08-21T11:29:38.785Z,2.40
2022-08-21T11:32:47.969Z,1.92
2022-08-21T11:35:29.366Z,2.30
2022-08-21T11:38:11.379Z,2.53
2022-08-21T11:40:51.131Z,2.25
2022-08-21T11:43:29.835Z,1.85
2022-08-21T11:46:03.094Z,2.45
2022-08-21T11:48:49.338Z,2.00
2022-08-21T11:51:22.908Z,1.92
2022-08-21T11:54:01.773Z,1.83
2022-08-21T11:56:35.128Z,2.75
2022-08-21T11:59:13.625Z,2.28
2022-08-21T12:01:46.529Z,2.17
2022-08-21T12:04:23.473Z,1.95
2022-08-21T12:06:54.837Z,1.77
2022-08-21T12:12:34.517Z,2.13
2022-08-21T12:15:27.397Z,2.10
2022-08-21T12:18:01.185Z,2.22
2022-08-21T12:20:50.093Z,2.30
2022-08-21T12:23:29.059Z,2.00
2022-08-21T12:26:50.481Z,2.28
2022-08-21T12:29:27.856Z,2.03
2022-08-21T12:32:00.013Z,1.75
2022-08-21T12:37:34.879Z,2.10
2022-08-21T12:40:11.685Z,1.88
2022-08-21T12:42:58.630Z,1.95
2022-08-21T12:45:31.289Z,1.70
2022-08-21T12:48:08.592Z,2.33
2022-08-21T12:50:40.231Z,1.95
2022-08-21T12:53:20.515Z,2.10
2022-08-21T12:55:49.538Z,2.22
2022-08-21T12:58:25.802Z,2.20
2022-08-21T13:00:56.272Z,2.45
2022-08-21T13:03:28.081Z,2.33
2022-08-21T13:06:00.718Z,1.70
2022-08-21T13:08:34.534Z,2.20
2022-08-21T13:11:13.348Z,1.60
2022-08-21T13:13:46.967Z,2.30
2022-08-21T13:16:27.255Z,2.00
2022-08-21T13:18:59.931Z,2.33
2022-08-21T13:21:31.755Z,2.22
2022-08-21T13:24:41.249Z,1.95
2022-08-21T13:27:29.493Z,2.15
2022-08-21T13:30:12.126Z,2.35
2022-08-21T13:32:45.017Z,2.33
2022-08-21T13:35:22.615Z,2.40
2022-08-21T13:37:52.547Z,2.00
2022-08-21T13:40:29.518Z,1.88
2022-08-21T13:43:21.426Z,2.28
2022-08-21T13:45:56.279Z,1.90
2022-08-21T13:48:29.412Z,2.22
2022-08-21T13:51:01.922Z,2.15
2022-08-21T13:53:52.260Z,2.40
2022-08-21T13:56:33.844Z,2.00
2022-08-21T13:59:05.296Z,2.13
2022-08-21T14:01:38.315Z,2.22
2022-08-21T14:07:18.948Z,2.17
2022-08-21T14:09:48.492Z,2.05
2022-08-21T14:12:26.311Z,1.88
2022-08-21T14:14:56.778Z,2.30
2022-08-21T14:17:34.626Z,2.25
2022-08-21T14:20:02.906Z,2.50
2022-08-21T14:22:50.892Z,1.98
2022-08-21T14:25:33.606Z,2.30
2022-08-21T14:28:19.657Z,1.80
2022-08-21T14:30:51.582Z,1.63
2022-08-21T14:33:28.795Z,2.03
2022-08-21T14:35:58.252Z,1.80
2022-08-21T14:38:30.602Z,1.90
2022-08-21T14:41:01.278Z,1.92
2022-08-21T14:43:33.712Z,1.75
2022-08-21T14:46:03.206Z,1.70
2022-08-21T14:48:32.581Z,1.75
2022-08-21T14:51:03.575Z,1.58
2022-08-21T14:53:34.601Z,1.98
2022-08-21T14:56:11.539Z,1.95
2022-08-21T14:58:43.105Z,1.60
2022-08-21T15:01:13.549Z,1.50
2022-08-21T15:03:43.491Z,1.80
2022-08-21T15:06:18.361Z,1.80
2022-08-21T15:08:46.310Z,1.80
2022-08-21T15:11:41.507Z,1.48
2022-08-21T15:14:12.766Z,1.58
2022-08-21T15:16:40.849Z,1.70
2022-08-21T15:19:10.521Z,1.73
2022-08-21T15:21:38.522Z,1.58
2022-08-21T15:24:07.023Z,1.58
2022-08-21T15:26:35.878Z,1.40
2022-08-21T15:29:06.769Z,1.63
2022-08-21T15:31:36.034Z,1.52
2022-08-21T15:34:04.393Z,1.38
2022-08-21T15:36:33.806Z,1.48
2022-08-21T15:39:01.928Z,1.25
2022-08-21T15:41:31.098Z,1.40
2022-08-21T15:43:59.080Z,1.38
2022-08-21T15:46:27.127Z,1.58
2022-08-21T15:48:59.344Z,1.65
2022-08-21T15:51:28.025Z,1.40
2022-08-21T15:53:57.635Z,1.58
2022-08-21T15:56:28.151Z,1.50
2022-08-21T15:59:01.592Z,1.50
2022-08-21T16:01:36.263Z,1.60
2022-08-21T16:04:17.332Z,1.85
2022-08-21T16:06:54.042Z,1.40
2022-08-21T16:09:25.491Z,1.60
2022-08-21T16:11:54.485Z,1.88
2022-08-21T16:14:22.484Z,1.30
2022-08-21T16:16:50.555Z,1.50
2022-08-21T16:19:19.428Z,1.50
2022-08-21T16:21:47.380Z,1.70
2022-08-21T16:24:15.476Z,1.70
2022-08-21T16:26:47.562Z,1.75
2022-08-21T16:29:34.524Z,1.30
2022-08-21T16:32:02.677Z,1.60
2022-08-21T16:34:31.339Z,1.65
2022-08-21T16:36:59.362Z,1.65
2022-08-21T16:39:27.708Z,1.38
2022-08-21T16:41:59.640Z,1.83
2022-08-21T16:44:31.189Z,1.55
2022-08-21T16:46:59.603Z,1.63
2022-08-21T16:49:28.098Z,2.03
2022-08-21T16:51:58.867Z,1.88
2022-08-21T16:54:28.321Z,2.28
2022-08-21T16:56:59.747Z,1.90
2022-08-21T16:59:28.360Z,2.20
2022-08-21T17:01:57.087Z,1.70
2022-08-21T17:04:29.518Z,2.53
2022-08-21T17:06:58.566Z,2.50
2022-08-21T17:09:26.549Z,2.17
2022-08-21T17:11:59.349Z,2.28
2022-08-21T17:14:27.276Z,2.40
2022-08-21T17:16:57.366Z,2.35
2022-08-21T17:19:25.646Z,2.78
2022-08-21T17:21:53.730Z,2.03
2022-08-21T17:24:21.993Z,2.40
2022-08-21T17:26:50.988Z,2.28
2022-08-21T17:29:25.681Z,2.30
2022-08-21T17:31:54.048Z,2.33
2022-08-21T17:34:22.465Z,2.30
2022-08-21T17:36:50.475Z,2.22
2022-08-21T17:39:26.585Z,2.50
2022-08-21T17:41:58.146Z,2.42
2022-08-21T17:44:28.267Z,2.30
2022-08-21T17:46:56.389Z,2.25
2022-08-21T17:49:25.349Z,2.55
2022-08-21T17:51:53.595Z,2.25
2022-08-21T17:54:21.710Z,2.03
2022-08-21T17:56:49.798Z,2.15
2022-08-21T17:59:18.066Z,2.70
2022-08-21T18:01:48.109Z,1.95
2022-08-21T18:07:12.863Z,2.30
2022-08-21T18:10:01.645Z,2.33
2022-08-21T18:12:30.451Z,2.45
2022-08-21T18:17:34.732Z,2.30
2022-08-21T18:20:04.935Z,2.20
2022-08-21T18:22:33.196Z,2.28
2022-08-21T18:25:01.359Z,2.15
2022-08-21T18:43:34.312Z,2.08
2022-08-21T18:46:03.051Z,2.33
2022-08-21T18:48:31.369Z,2.45
2022-08-21T18:50:59.716Z,1.95
2022-08-21T18:53:29.135Z,1.85
2022-08-21T18:56:04.945Z,2.03
2022-08-21T19:11:45.317Z,2.75
2022-08-21T19:14:17.535Z,2.00
2022-08-21T19:16:49.874Z,2.45
2022-08-21T19:19:18.996Z,2.47
2022-08-21T19:21:49.466Z,2.80
2022-08-21T19:24:23.244Z,2.00
2022-08-21T19:26:55.774Z,2.30
2022-08-21T19:29:34.715Z,2.10
2022-08-21T19:32:15.981Z,2.88
2022-08-21T19:34:46.532Z,3.22
2022-08-21T19:37:16.311Z,2.10
2022-08-21T19:39:50.116Z,2.72
2022-08-21T19:42:22.169Z,2.95
2022-08-21T19:45:05.390Z,2.58
2022-08-21T19:47:33.824Z,2.20
2022-08-21T19:50:17.332Z,2.97
2022-08-21T19:52:51.396Z,2.33
2022-08-21T19:55:20.200Z,2.55
2022-08-21T19:57:57.029Z,2.60
2022-08-21T20:00:25.551Z,2.45
2022-08-21T20:03:25.379Z,2.30
2022-08-21T20:08:42.561Z,3.00
2022-08-21T20:11:13.615Z,3.13
2022-08-21T20:13:45.736Z,2.25
2022-08-21T20:16:18.358Z,2.42
2022-08-21T20:18:48.263Z,2.50
2022-08-21T20:21:17.182Z,2.67
2022-08-21T20:24:17.443Z,2.67
2022-08-21T20:26:49.477Z,2.10
2022-08-21T20:29:24.600Z,2.65
2022-08-21T20:34:36.700Z,1.98
2022-08-21T20:37:09.373Z,2.17
2022-08-21T20:39:38.094Z,2.28
2022-08-21T20:42:10.226Z,2.83
2022-08-21T20:47:41.602Z,2.75
2022-08-21T20:50:15.215Z,2.53
2022-08-21T20:52:43.632Z,2.75
2022-08-21T20:55:15.471Z,2.50
2022-08-21T20:57:51.103Z,2.65
2022-08-21T21:00:24.671Z,2.67
2022-08-21T21:03:01.087Z,2.60
2022-08-21T21:08:13.815Z,3.38
2022-08-21T21:10:47.177Z,2.58
2022-08-21T21:13:23.292Z,2.70
2022-08-21T21:15:55.675Z,2.80
2022-08-21T21:18:32.103Z,2.63
2022-08-21T21:21:07.156Z,2.47
2022-08-21T21:23:42.769Z,2.60
2022-08-21T21:26:17.156Z,2.40
2022-08-21T21:28:52.449Z,2.25
2022-08-21T21:31:21.223Z,2.30
2022-08-21T21:33:50.600Z,3.10
2022-08-21T21:36:30.886Z,2.70
2022-08-21T21:39:10.177Z,2.45
2022-08-21T21:41:44.879Z,2.05
2022-08-21T21:44:24.274Z,2.60
2022-08-21T21:47:02.133Z,2.40
2022-08-21T21:49:50.806Z,2.20
2022-08-21T21:52:31.745Z,2.08
2022-08-21T21:55:09.232Z,2.95
2022-08-21T21:58:00.415Z,2.15
2022-08-21T22:00:35.485Z,2.45
2022-08-21T22:03:14.097Z,2.38
2022-08-21T22:05:56.257Z,2.90
2022-08-21T22:08:50.597Z,2.65
2022-08-21T22:11:55.364Z,2.70
2022-08-21T22:14:32.658Z,2.60
2022-08-21T22:17:09.511Z,1.92
2022-08-21T22:19:43.383Z,2.35
2022-08-21T22:22:17.301Z,2.50
2022-08-21T22:24:51.502Z,2.70
2022-08-21T22:27:30.845Z,2.53
2022-08-21T22:30:01.568Z,2.33
2022-08-21T22:32:37.677Z,2.53
2022-08-21T22:35:12.704Z,2.95
2022-08-21T22:37:45.983Z,2.58
2022-08-21T22:40:26.407Z,2.40
2022-08-21T22:43:02.632Z,2.50
2022-08-21T22:45:31.644Z,2.45
2022-08-21T22:48:14.715Z,2.60
2022-08-21T22:51:01.449Z,2.63
2022-08-21T22:53:35.342Z,2.58
2022-08-21T22:56:07.659Z,2.60
2022-08-21T22:58:41.059Z,2.28
2022-08-21T23:01:18.258Z,2.53
2022-08-21T23:03:49.836Z,2.78
2022-08-21T23:06:29.542Z,2.50
2022-08-21T23:09:02.068Z,2.90
2022-08-21T23:11:39.854Z,2.78
2022-08-21T23:14:14.115Z,2.40
2022-08-21T23:16:53.357Z,2.35
2022-08-21T23:19:38.048Z,2.40
2022-08-21T23:22:22.649Z,2.60
2022-08-21T23:25:05.912Z,2.75
2022-08-21T23:27:49.761Z,3.05
2022-08-21T23:30:44.122Z,2.45
2022-08-21T23:33:34.284Z,2.83
2022-08-21T23:36:34.552Z,2.30
2022-08-21T23:39:16.261Z,3.05
2022-08-21T23:41:56.766Z,2.47
2022-08-21T23:44:40.965Z,2.53
2022-08-21T23:47:26.536Z,2.90
2022-08-21T23:50:05.728Z,2.78
2022-08-21T23:53:01.617Z,2.55
2022-08-21T23:56:00.004Z,2.40
2022-08-21T23:58:40.695Z,2.78
